Hoken Maru — JD2909 — position and weather

sailwx.info

Track history (hours):
 
Tides and Currents Weather Stations Pressure Air Temp Water Temp Dewpoint Dewpoint Depression Visibility Wind Speed Wind Dir Waves Ship Positions

Hoken Maru

Last reported at 2018-Jun-20 23:44 UTC. Time now 2018-Jun-23 08:07 UTC.
Position N 33°49' E 135°03'.

Length 72 m; draft 4.7 m.

Type: Ship (hazmat cat D). MMSI: 431000943.

Date/timePositionNaut miles runAvg speedWind from/ knotsBaromVisibWave heightAir tempDewpointWater temp
2018-Jun-20 23:44N 33°49' E 135°03'310.8
2018-Jun-20 23:29N 33°51' E 135°01'611.1
2018-Jun-20 23:00N 33°55' E 134°57'611.4
2018-Jun-20 22:29N 33°60' E 134°53'611.9
2018-Jun-20 21:58N 34°04' E 134°48'912.4
2018-Jun-20 21:14N 34°12' E 134°42'2 9.2
2018-Jun-20 21:00N 34°14' E 134°42'0 0.1
2018-Jun-20 15:15N 34°14' E 134°42'0 0.0
2018-Jun-20 13:33N 34°14' E 134°42'0 0.0
2018-Jun-20 12:33N 34°14' E 134°42'0 0.1
2018-Jun-20 12:27N 34°14' E 134°42'0 0.0
2018-Jun-20 11:36N 34°14' E 134°42'0 0.1
2018-Jun-20 11:30N 34°14' E 134°42'0 0.1
2018-Jun-20 10:57N 34°14' E 134°42'0 0.1
2018-Jun-20 10:27N 34°14' E 134°42'0 0.0
2018-Jun-20 10:00N 34°14' E 134°42'0 0.1
2018-Jun-20 09:30N 34°14' E 134°42'0 0.1
2018-Jun-20 08:48N 34°14' E 134°42'0 0.0
2018-Jun-20 08:09N 34°14' E 134°42'0 0.0
2018-Jun-20 08:00N 34°14' E 134°42'0 0.0
2018-Jun-20 07:30N 34°14' E 134°42'0 0.1
2018-Jun-20 06:51N 34°14' E 134°42'0 0.2
2018-Jun-20 06:30N 34°14' E 134°42'5 8.5
2018-Jun-20 05:52N 34°16' E 134°36'411.5
2018-Jun-20 05:30N 34°18' E 134°31'611.4
2018-Jun-20 05:00N 34°20' E 134°25'10 0.6
2018-Jun-19 12:50N 34°24' E 134°14'613.2
2018-Jun-19 12:22N 34°25' E 134°21'512.8
2018-Jun-19 11:59N 34°27' E 134°26'612.2
2018-Jun-19 11:30N 34°29' E 134°33'612.1
2018-Jun-19 11:00N 34°31' E 134°40'612.0
2018-Jun-19 10:30N 34°33' E 134°47'611.2
2018-Jun-19 10:01N 34°35' E 134°53'510.4
2018-Jun-19 09:30N 34°38' E 134°59'5 9.4
2018-Jun-19 09:00N 34°36' E 135°04'4 7.9
2018-Jun-19 08:30N 34°39' E 135°08'0 0.0
2018-Jun-19 07:59N 34°39' E 135°08'0 0.0
2018-Jun-19 07:29N 34°39' E 135°08'0 0.0
2018-Jun-19 06:56N 34°39' E 135°08'0 0.0
2018-Jun-19 06:26N 34°39' E 135°08'0 0.2
2018-Jun-19 06:00N 34°38' E 135°08'5 9.3
2018-Jun-19 05:30N 34°35' E 135°05'610.8
2018-Jun-19 04:58N 34°36' E 134°58'511.4
2018-Jun-19 04:31N 34°34' E 134°52'710.7
2018-Jun-19 03:51N 34°31' E 134°44'411.4
2018-Jun-19 03:29N 34°30' E 134°40'511.5
2018-Jun-19 03:01N 34°28' E 134°33'  
2018-Jun-14 06:38N 34°25' E 134°22'212.4
2018-Jun-14 06:30N 34°26' E 134°24'612.5
2018-Jun-14 06:00N 34°28' E 134°31'712.4
2018-Jun-14 05:29N 34°31' E 134°38'611.9
2018-Jun-14 05:01N 34°33' E 134°45'611.1
2018-Jun-14 04:30N 34°35' E 134°51'5 9.6
2018-Jun-14 04:00N 34°37' E 134°56'5 9.0
2018-Jun-14 03:28N 34°37' E 135°02'4 9.7
2018-Jun-14 03:00N 34°37' E 135°07'2 3.3
2018-Jun-14 02:28N 34°39' E 135°08'0 0.0
2018-Jun-14 01:55N 34°39' E 135°08'0 0.0
2018-Jun-14 01:28N 34°39' E 135°08'0 0.0
2018-Jun-14 00:52N 34°39' E 135°08'0 0.0
2018-Jun-14 00:28N 34°39' E 135°08'0 0.0
2018-Jun-13 23:56N 34°39' E 135°08'1 1.7
2018-Jun-13 23:27N 34°38' E 135°09'0 0.0
2018-Jun-13 22:57N 34°38' E 135°09'0 0.0
2018-Jun-13 22:27N 34°38' E 135°09'0 0.0
2018-Jun-13 21:57N 34°38' E 135°09'0 0.1
2018-Jun-13 21:27N 34°38' E 135°09'0 0.0
2018-Jun-13 20:57N 34°38' E 135°09'0 0.0
2018-Jun-13 20:27N 34°38' E 135°09'0 0.0
2018-Jun-13 19:51N 34°38' E 135°09'0 0.0
2018-Jun-13 19:27N 34°38' E 135°09'0 0.1
2018-Jun-13 18:57N 34°38' E 135°09'0 0.0
2018-Jun-13 18:27N 34°38' E 135°09'0 0.0
2018-Jun-13 17:57N 34°38' E 135°09'0 0.0
2018-Jun-13 17:27N 34°38' E 135°09'0 0.1
2018-Jun-13 16:57N 34°38' E 135°09'0 0.1
2018-Jun-13 16:27N 34°38' E 135°09'0 0.0
2018-Jun-13 15:57N 34°38' E 135°09'0 0.0
2018-Jun-13 15:21N 34°38' E 135°09'0 0.1
2018-Jun-13 14:51N 34°38' E 135°09'0 0.1
2018-Jun-13 14:21N 34°38' E 135°09'0 0.0
2018-Jun-13 13:45N 34°38' E 135°09'0 0.0
2018-Jun-13 13:27N 34°38' E 135°09'0 0.0
2018-Jun-13 12:33N 34°38' E 135°09'0 0.0
2018-Jun-13 12:21N 34°38' E 135°09'0 0.0
2018-Jun-13 11:57N 34°38' E 135°09'0 0.0
2018-Jun-13 11:27N 34°38' E 135°09'0 0.0
2018-Jun-13 10:51N 34°38' E 135°09'0 0.0
2018-Jun-13 10:27N 34°38' E 135°09'0 0.0
2018-Jun-13 09:57N 34°38' E 135°09'0 0.0
2018-Jun-13 09:27N 34°38' E 135°09'0 0.0
2018-Jun-13 08:45N 34°38' E 135°09'0 0.0
2018-Jun-13 08:27N 34°38' E 135°09'0 0.0
2018-Jun-13 07:57N 34°38' E 135°09'0 0.0
2018-Jun-13 07:15N 34°38' E 135°09'0 0.0
2018-Jun-13 06:45N 34°38' E 135°09'0 0.0
2018-Jun-13 06:30N 34°38' E 135°09'0 0.1
2018-Jun-13 05:45N 34°38' E 135°09'0 0.0
2018-Jun-13 05:21N 34°38' E 135°09'0 0.0
2018-Jun-13 04:57N 34°38' E 135°09'0 0.0
2018-Jun-13 04:27N 34°38' E 135°09'0 0.0
2018-Jun-13 03:51N 34°38' E 135°09'0 0.6
2018-Jun-13 03:30N 34°38' E 135°09'5 8.8
2018-Jun-13 02:58N 34°36' E 135°14'510.9
2018-Jun-13 02:29N 34°34' E 135°20'5 9.9
2018-Jun-13 02:00N 34°33' E 135°26'0 0.0
2018-Jun-12 22:51N 34°33' E 135°26'0 0.5
2018-Jun-12 22:29N 34°33' E 135°26'1 2.9
2018-Jun-12 22:00N 34°33' E 135°24'2 4.5
2018-Jun-12 21:30N 34°31' E 135°24'0 0.0
2018-Jun-12 21:00N 34°31' E 135°24'0 0.0
2018-Jun-12 20:25N 34°31' E 135°24'0 0.0
2018-Jun-12 19:55N 34°31' E 135°24'0 0.0
2018-Jun-12 19:19N 34°31' E 135°24'0 0.0
2018-Jun-12 18:55N 34°31' E 135°24'0 0.0
2018-Jun-12 18:19N 34°31' E 135°24'0 0.0
2018-Jun-12 17:55N 34°31' E 135°24'0 0.0
2018-Jun-12 17:25N 34°31' E 135°24'0 0.0
2018-Jun-12 16:55N 34°31' E 135°24'0 0.0
2018-Jun-12 16:25N 34°31' E 135°24'0 0.0
2018-Jun-12 15:55N 34°31' E 135°24'0 0.0
2018-Jun-12 15:25N 34°31' E 135°24'0 0.0
2018-Jun-12 14:49N 34°31' E 135°24'0 0.0
2018-Jun-12 14:25N 34°31' E 135°24'0 0.0
2018-Jun-12 13:49N 34°31' E 135°24'0 0.0
2018-Jun-12 13:19N 34°31' E 135°24'0 0.0
2018-Jun-12 12:55N 34°31' E 135°24'0 0.0
2018-Jun-12 12:19N 34°31' E 135°24'0 0.0
2018-Jun-12 11:55N 34°31' E 135°24'0 0.0
2018-Jun-12 11:25N 34°31' E 135°24'0 0.0
2018-Jun-12 10:43N 34°31' E 135°24'0 0.0
2018-Jun-12 10:25N 34°31' E 135°24'0 0.0
2018-Jun-12 09:43N 34°31' E 135°24'0 0.0
2018-Jun-12 09:19N 34°31' E 135°24'0 0.0
2018-Jun-12 08:55N 34°31' E 135°24'0 0.0
2018-Jun-12 08:19N 34°31' E 135°24'0 0.0
2018-Jun-12 07:49N 34°31' E 135°24'0 0.0
2018-Jun-12 07:25N 34°31' E 135°24'0 0.0
2018-Jun-12 06:55N 34°31' E 135°24'0 0.0
2018-Jun-12 06:19N 34°31' E 135°24'0 0.0
2018-Jun-12 05:55N 34°31' E 135°24'0 0.0
2018-Jun-12 05:13N 34°31' E 135°24'0 0.1
2018-Jun-12 05:00N 34°31' E 135°24'4 6.9
2018-Jun-12 04:29N 34°33' E 135°21'3 6.9
2018-Jun-12 04:00N 34°32' E 135°25'0 0.0
2018-Jun-12 00:01N 34°32' E 135°25'0 1.1
2018-Jun-12 00:00N 34°32' E 135°25'2 4.6
2018-Jun-11 23:30N 34°32' E 135°22'2 2.8
2018-Jun-11 22:49N 34°32' E 135°20'0 0.0
2018-Jun-11 22:28N 34°32' E 135°20'0 0.0
2018-Jun-11 21:58N 34°32' E 135°20'0 0.0
2018-Jun-11 21:19N 34°32' E 135°20'0 0.0
2018-Jun-11 20:55N 34°32' E 135°20'0 0.0
2018-Jun-11 20:25N 34°32' E 135°20'0 0.0
2018-Jun-11 19:55N 34°32' E 135°20'0 0.0
2018-Jun-11 19:25N 34°32' E 135°20'0 0.0
2018-Jun-11 18:55N 34°32' E 135°20'0 0.0
2018-Jun-11 18:19N 34°32' E 135°20'0 0.0
2018-Jun-11 17:55N 34°32' E 135°20'0 0.0
2018-Jun-11 17:22N 34°32' E 135°20'0 0.0
2018-Jun-11 16:55N 34°32' E 135°20'0 0.0
2018-Jun-11 16:25N 34°32' E 135°20'0 0.0
2018-Jun-11 15:55N 34°32' E 135°20'0 0.1
2018-Jun-11 15:25N 34°32' E 135°20'0 0.0
2018-Jun-11 14:55N 34°32' E 135°20'0 0.0
2018-Jun-11 14:25N 34°32' E 135°20'0 0.0
2018-Jun-11 13:55N 34°32' E 135°20'0 0.0
2018-Jun-11 13:22N 34°32' E 135°20'0 0.0
2018-Jun-11 12:55N 34°32' E 135°20'0 0.1
2018-Jun-11 12:23N 34°32' E 135°20'3 8.2
2018-Jun-11 12:00N 34°33' E 135°16'611.5
2018-Jun-11 11:30N 34°34' E 135°10'510.8
2018-Jun-11 11:00N 34°36' E 135°03'5 9.0
2018-Jun-11 10:24N 34°36' E 134°57'4 9.0
2018-Jun-11 10:00N 34°35' E 134°52'5 9.0
2018-Jun-11 09:23N 34°32' E 134°47'610.4
2018-Jun-11 08:47N 34°30' E 134°39'310.7
2018-Jun-11 08:30N 34°29' E 134°36'  
Track history (hours):
 
Tides and Currents Weather Stations Pressure Air Temp Water Temp Dewpoint Dewpoint Depression Visibility Wind Speed Wind Dir Waves Ship Positions

Hoken Maru

Last reported at 2018-Jun-20 23:44 UTC. Time now 2018-Jun-23 08:07 UTC.
Position N 33°49' E 135°03'.

Length 72 m; draft 4.7 m.

Type: Ship (hazmat cat D). MMSI: 431000943.

Date/timePositionNaut miles runAvg speedWind from/ knotsBaromVisibWave heightAir tempDewpointWater temp
2018-Jun-20 23:44N 33°49' E 135°03'310.8
2018-Jun-20 23:29N 33°51' E 135°01'611.1
2018-Jun-20 23:00N 33°55' E 134°57'611.4
2018-Jun-20 22:29N 33°60' E 134°53'611.9
2018-Jun-20 21:58N 34°04' E 134°48'912.4
2018-Jun-20 21:14N 34°12' E 134°42'2 9.2
2018-Jun-20 21:00N 34°14' E 134°42'0 0.1
2018-Jun-20 15:15N 34°14' E 134°42'0 0.0
2018-Jun-20 13:33N 34°14' E 134°42'0 0.0
2018-Jun-20 12:33N 34°14' E 134°42'0 0.1
2018-Jun-20 12:27N 34°14' E 134°42'0 0.0
2018-Jun-20 11:36N 34°14' E 134°42'0 0.1
2018-Jun-20 11:30N 34°14' E 134°42'0 0.1
2018-Jun-20 10:57N 34°14' E 134°42'0 0.1
2018-Jun-20 10:27N 34°14' E 134°42'0 0.0
2018-Jun-20 10:00N 34°14' E 134°42'0 0.1
2018-Jun-20 09:30N 34°14' E 134°42'0 0.1
2018-Jun-20 08:48N 34°14' E 134°42'0 0.0
2018-Jun-20 08:09N 34°14' E 134°42'0 0.0
2018-Jun-20 08:00N 34°14' E 134°42'0 0.0
2018-Jun-20 07:30N 34°14' E 134°42'0 0.1
2018-Jun-20 06:51N 34°14' E 134°42'0 0.2
2018-Jun-20 06:30N 34°14' E 134°42'5 8.5
2018-Jun-20 05:52N 34°16' E 134°36'411.5
2018-Jun-20 05:30N 34°18' E 134°31'611.4
2018-Jun-20 05:00N 34°20' E 134°25'10 0.6
2018-Jun-19 12:50N 34°24' E 134°14'613.2
2018-Jun-19 12:22N 34°25' E 134°21'512.8
2018-Jun-19 11:59N 34°27' E 134°26'612.2
2018-Jun-19 11:30N 34°29' E 134°33'612.1
2018-Jun-19 11:00N 34°31' E 134°40'612.0
2018-Jun-19 10:30N 34°33' E 134°47'611.2
2018-Jun-19 10:01N 34°35' E 134°53'510.4
2018-Jun-19 09:30N 34°38' E 134°59'5 9.4
2018-Jun-19 09:00N 34°36' E 135°04'4 7.9
2018-Jun-19 08:30N 34°39' E 135°08'0 0.0
2018-Jun-19 07:59N 34°39' E 135°08'0 0.0
2018-Jun-19 07:29N 34°39' E 135°08'0 0.0
2018-Jun-19 06:56N 34°39' E 135°08'0 0.0
2018-Jun-19 06:26N 34°39' E 135°08'0 0.2
2018-Jun-19 06:00N 34°38' E 135°08'5 9.3
2018-Jun-19 05:30N 34°35' E 135°05'610.8
2018-Jun-19 04:58N 34°36' E 134°58'511.4
2018-Jun-19 04:31N 34°34' E 134°52'710.7
2018-Jun-19 03:51N 34°31' E 134°44'411.4
2018-Jun-19 03:29N 34°30' E 134°40'511.5
2018-Jun-19 03:01N 34°28' E 134°33'  
2018-Jun-14 06:38N 34°25' E 134°22'212.4
2018-Jun-14 06:30N 34°26' E 134°24'612.5
2018-Jun-14 06:00N 34°28' E 134°31'712.4
2018-Jun-14 05:29N 34°31' E 134°38'611.9
2018-Jun-14 05:01N 34°33' E 134°45'611.1
2018-Jun-14 04:30N 34°35' E 134°51'5 9.6
2018-Jun-14 04:00N 34°37' E 134°56'5 9.0
2018-Jun-14 03:28N 34°37' E 135°02'4 9.7
2018-Jun-14 03:00N 34°37' E 135°07'2 3.3
2018-Jun-14 02:28N 34°39' E 135°08'0 0.0
2018-Jun-14 01:55N 34°39' E 135°08'0 0.0
2018-Jun-14 01:28N 34°39' E 135°08'0 0.0
2018-Jun-14 00:52N 34°39' E 135°08'0 0.0
2018-Jun-14 00:28N 34°39' E 135°08'0 0.0
2018-Jun-13 23:56N 34°39' E 135°08'1 1.7
2018-Jun-13 23:27N 34°38' E 135°09'0 0.0
2018-Jun-13 22:57N 34°38' E 135°09'0 0.0
2018-Jun-13 22:27N 34°38' E 135°09'0 0.0
2018-Jun-13 21:57N 34°38' E 135°09'0 0.1
2018-Jun-13 21:27N 34°38' E 135°09'0 0.0
2018-Jun-13 20:57N 34°38' E 135°09'0 0.0
2018-Jun-13 20:27N 34°38' E 135°09'0 0.0
2018-Jun-13 19:51N 34°38' E 135°09'0 0.0
2018-Jun-13 19:27N 34°38' E 135°09'0 0.1
2018-Jun-13 18:57N 34°38' E 135°09'0 0.0
2018-Jun-13 18:27N 34°38' E 135°09'0 0.0
2018-Jun-13 17:57N 34°38' E 135°09'0 0.0
2018-Jun-13 17:27N 34°38' E 135°09'0 0.1
2018-Jun-13 16:57N 34°38' E 135°09'0 0.1
2018-Jun-13 16:27N 34°38' E 135°09'0 0.0
2018-Jun-13 15:57N 34°38' E 135°09'0 0.0
2018-Jun-13 15:21N 34°38' E 135°09'0 0.1
2018-Jun-13 14:51N 34°38' E 135°09'0 0.1
2018-Jun-13 14:21N 34°38' E 135°09'0 0.0
2018-Jun-13 13:45N 34°38' E 135°09'0 0.0
2018-Jun-13 13:27N 34°38' E 135°09'0 0.0
2018-Jun-13 12:33N 34°38' E 135°09'0 0.0
2018-Jun-13 12:21N 34°38' E 135°09'0 0.0
2018-Jun-13 11:57N 34°38' E 135°09'0 0.0
2018-Jun-13 11:27N 34°38' E 135°09'0 0.0
2018-Jun-13 10:51N 34°38' E 135°09'0 0.0
2018-Jun-13 10:27N 34°38' E 135°09'0 0.0
2018-Jun-13 09:57N 34°38' E 135°09'0 0.0
2018-Jun-13 09:27N 34°38' E 135°09'0 0.0
2018-Jun-13 08:45N 34°38' E 135°09'0 0.0
2018-Jun-13 08:27N 34°38' E 135°09'0 0.0
2018-Jun-13 07:57N 34°38' E 135°09'0 0.0
2018-Jun-13 07:15N 34°38' E 135°09'0 0.0
2018-Jun-13 06:45N 34°38' E 135°09'0 0.0
2018-Jun-13 06:30N 34°38' E 135°09'0 0.1
2018-Jun-13 05:45N 34°38' E 135°09'0 0.0
2018-Jun-13 05:21N 34°38' E 135°09'0 0.0
2018-Jun-13 04:57N 34°38' E 135°09'0 0.0
2018-Jun-13 04:27N 34°38' E 135°09'0 0.0
2018-Jun-13 03:51N 34°38' E 135°09'0 0.6
2018-Jun-13 03:30N 34°38' E 135°09'5 8.8
2018-Jun-13 02:58N 34°36' E 135°14'510.9
2018-Jun-13 02:29N 34°34' E 135°20'5 9.9
2018-Jun-13 02:00N 34°33' E 135°26'0 0.0
2018-Jun-12 22:51N 34°33' E 135°26'0 0.5
2018-Jun-12 22:29N 34°33' E 135°26'1 2.9
2018-Jun-12 22:00N 34°33' E 135°24'2 4.5
2018-Jun-12 21:30N 34°31' E 135°24'0 0.0
2018-Jun-12 21:00N 34°31' E 135°24'0 0.0
2018-Jun-12 20:25N 34°31' E 135°24'0 0.0
2018-Jun-12 19:55N 34°31' E 135°24'0 0.0
2018-Jun-12 19:19N 34°31' E 135°24'0 0.0
2018-Jun-12 18:55N 34°31' E 135°24'0 0.0
2018-Jun-12 18:19N 34°31' E 135°24'0 0.0
2018-Jun-12 17:55N 34°31' E 135°24'0 0.0
2018-Jun-12 17:25N 34°31' E 135°24'0 0.0
2018-Jun-12 16:55N 34°31' E 135°24'0 0.0
2018-Jun-12 16:25N 34°31' E 135°24'0 0.0
2018-Jun-12 15:55N 34°31' E 135°24'0 0.0
2018-Jun-12 15:25N 34°31' E 135°24'0 0.0
2018-Jun-12 14:49N 34°31' E 135°24'0 0.0
2018-Jun-12 14:25N 34°31' E 135°24'0 0.0
2018-Jun-12 13:49N 34°31' E 135°24'0 0.0
2018-Jun-12 13:19N 34°31' E 135°24'0 0.0
2018-Jun-12 12:55N 34°31' E 135°24'0 0.0
2018-Jun-12 12:19N 34°31' E 135°24'0 0.0
2018-Jun-12 11:55N 34°31' E 135°24'0 0.0
2018-Jun-12 11:25N 34°31' E 135°24'0 0.0
2018-Jun-12 10:43N 34°31' E 135°24'0 0.0
2018-Jun-12 10:25N 34°31' E 135°24'0 0.0
2018-Jun-12 09:43N 34°31' E 135°24'0 0.0
2018-Jun-12 09:19N 34°31' E 135°24'0 0.0
2018-Jun-12 08:55N 34°31' E 135°24'0 0.0
2018-Jun-12 08:19N 34°31' E 135°24'0 0.0
2018-Jun-12 07:49N 34°31' E 135°24'0 0.0
2018-Jun-12 07:25N 34°31' E 135°24'0 0.0
2018-Jun-12 06:55N 34°31' E 135°24'0 0.0
2018-Jun-12 06:19N 34°31' E 135°24'0 0.0
2018-Jun-12 05:55N 34°31' E 135°24'0 0.0
2018-Jun-12 05:13N 34°31' E 135°24'0 0.1
2018-Jun-12 05:00N 34°31' E 135°24'4 6.9
2018-Jun-12 04:29N 34°33' E 135°21'3 6.9
2018-Jun-12 04:00N 34°32' E 135°25'0 0.0
2018-Jun-12 00:01N 34°32' E 135°25'0 1.1
2018-Jun-12 00:00N 34°32' E 135°25'2 4.6
2018-Jun-11 23:30N 34°32' E 135°22'2 2.8
2018-Jun-11 22:49N 34°32' E 135°20'0 0.0
2018-Jun-11 22:28N 34°32' E 135°20'0 0.0
2018-Jun-11 21:58N 34°32' E 135°20'0 0.0
2018-Jun-11 21:19N 34°32' E 135°20'0 0.0
2018-Jun-11 20:55N 34°32' E 135°20'0 0.0
2018-Jun-11 20:25N 34°32' E 135°20'0 0.0
2018-Jun-11 19:55N 34°32' E 135°20'0 0.0
2018-Jun-11 19:25N 34°32' E 135°20'0 0.0
2018-Jun-11 18:55N 34°32' E 135°20'0 0.0
2018-Jun-11 18:19N 34°32' E 135°20'0 0.0
2018-Jun-11 17:55N 34°32' E 135°20'0 0.0
2018-Jun-11 17:22N 34°32' E 135°20'0 0.0
2018-Jun-11 16:55N 34°32' E 135°20'0 0.0
2018-Jun-11 16:25N 34°32' E 135°20'0 0.0
2018-Jun-11 15:55N 34°32' E 135°20'0 0.1
2018-Jun-11 15:25N 34°32' E 135°20'0 0.0
2018-Jun-11 14:55N 34°32' E 135°20'0 0.0
2018-Jun-11 14:25N 34°32' E 135°20'0 0.0
2018-Jun-11 13:55N 34°32' E 135°20'0 0.0
2018-Jun-11 13:22N 34°32' E 135°20'0 0.0
2018-Jun-11 12:55N 34°32' E 135°20'0 0.1
2018-Jun-11 12:23N 34°32' E 135°20'3 8.2
2018-Jun-11 12:00N 34°33' E 135°16'611.5
2018-Jun-11 11:30N 34°34' E 135°10'510.8
2018-Jun-11 11:00N 34°36' E 135°03'5 9.0
2018-Jun-11 10:24N 34°36' E 134°57'4 9.0
2018-Jun-11 10:00N 34°35' E 134°52'5 9.0
2018-Jun-11 09:23N 34°32' E 134°47'610.4
2018-Jun-11 08:47N 34°30' E 134°39'310.7
2018-Jun-11 08:30N 34°29' E 134°36'  

Dump ship's entire track history